Miami, FL

4:45 PM EDT on August 29, 2014 (GMT -0400)
Dade County-Homestead Regional | Change Station
CLOSE
Current Station
Airport
Location: Homestead AFB,
Elevation: 7 ft
Nearby Weather Stations

Elev 7 ft 25.49 °N, 80.38 °W | Updated 47 minutes ago

Partly Cloudy
Partly Cloudy
90 °F
Feels Like 103 °F
N
12
Wind Variable Wind from East

Today
High -- | Low -- °F
--% Chance of Precip.
Yesterday
High -- | Low -- °F
Precip. -- in
7:00 AM 7:43 PM
Waxing Crescent, 16% visible
Pressure 30.02 in
Visibility 9.0 miles
Clouds Few 2500 ft
Heat Index 103 °F
Dew Point 77 °F
Humidity 64%
Rainfall 0.00 in
Snow Depth Not available.
UV 9 out of 12
Pollen 4.70 out of 12
PM2.5 Moderate
Flu Activity Not available.
METAR KHST 291958Z AUTO 08010KT 9SM FEW025 32/25 A3001 RMK AO2 SLP165 T03240249

More Conditions Fewer Conditions

Pressure 30.02 in
Visibility 9.0 miles
Clouds Few 2500 ft
Heat Index 103 °F
Dew Point 77 °F
Humidity 64%
Rainfall 0.00 in
Snow Depth Not available.
UV 9 out of 12
Pollen 4.70 out of 12
PM2.5 Moderate
Flu Activity Not available.
METAR KHST 291958Z AUTO 08010KT 9SM FEW025 32/25 A3001 RMK AO2 SLP165 T03240249

More Conditions Fewer Conditions

10-Day Weather Forecast

Almanac

Astronomy

Aug. 29, 2014 Rise Set
Actual Time 7:00 AM EDT 7:43 PM EDT
Civil Twilight 6:36 AM EDT 8:06 PM EDT
Nautical Twilight 6:09 AM EDT 8:34 PM EDT
Astronomical Twilight 5:40 AM EDT 9:02 PM EDT
Moon 10:22 AM EDT 10:08 PM EDT
Length of Visible Light 13h 30m
Length of Day
12h 43m
Tomorrow will be 1m 26s shorter.
Waxing Crescent, 16% of the Moon is Illuminated
Today
Waxing Crescent
Sep 2
First Quarter
Sep 8
Full
Sep 15
Last Quarter
Sep 24
New

Today's Extremes

State Highs State Lows

Community

WunderPhotos

Upload Photos

1,748,345 photos uploaded!

Nearby

Air Quality

  Air Quality AQ Index Pollutant
Yesterday Good
PM2.5
Yesterday Good
OZONE
Current Moderate
PM2.5
Friday Good
OZONE
Friday Good
PM2.5
Saturday Moderate
PM2.5
Saturday Good
OZONE
Sunday Moderate
PM2.5
Sunday Good
OZONE
Monday Moderate
PM2.5
Monday Good
OZONE
Tuesday Moderate
PM2.5
Tuesday Good
OZONE

Snow Depth

Station Depth Elevation
No new snow has been reported.

Earthquake Activity

City Distance Mag. Time & Date
No recent earthquake activity has been reported nearby.
Minimum magnitude displayed is 2.5.

Coastal Water Temperatures

Place Temperature
Virginia Key, FL 87.1 °F

Nearby Weather Stations